Time;durP1;ratioP1;P1;durP2;ratioP2;P2;SDS_P1;SDS_P2;PMS_P1;PMS_P2;Temp;Humidity;BMP_temperature;BMP_pressure;BME280_temperature;BME280_humidity;BME280_pressure;Samples;Min_cycle;Max_cycle;Signal;HPM_P1;HPM_P2
2021/12/03 00:01:53;;;;;;;;;;;;;;;0.31;85.92;100455.50;5002290;28;20438;-76
2021/12/03 00:04:18;;;;;;;;;;;;;;;0.29;86.00;100462.50;4982644;28;19984;-76
2021/12/03 00:06:43;;;;;;;;;;;;;;;0.26;85.85;100462.69;4998376;28;19929;-76
2021/12/03 00:09:08;;;;;;;;;;;;;;;0.19;85.98;100456.09;4995359;28;20023;-76
2021/12/03 00:11:34;;;;;;;;;;;;;;;0.12;86.10;100457.34;5001509;28;19965;-76
2021/12/03 00:13:59;;;;;;;;;;;;;;;0.10;86.09;100462.63;4982095;28;19922;-76
2021/12/03 00:16:24;;;;;;;;;;;;;;;0.11;85.91;100466.06;4999901;28;19912;-76
2021/12/03 00:18:49;;;;;;;;;;;;;;;0.04;86.03;100456.88;4996982;28;20284;-76
2021/12/03 00:21:16;;;;;;;;;;;;;;;0.04;85.66;100456.88;5007870;27;19911;-76
2021/12/03 00:23:42;;;;;;;;;;;;;;;-0.06;85.82;100462.50;5009736;27;20088;-76
2021/12/03 00:26:07;;;;;;;;;;;;;;;-0.12;85.88;100457.63;5001283;28;19932;-76
2021/12/03 00:28:32;;;;;;;;;;;;;;;-0.12;85.77;100462.00;4994879;28;19927;-77
2021/12/03 00:30:57;;;;;;;;;;;;;;;-0.12;85.44;100457.63;5000591;27;19912;-76
2021/12/03 00:33:23;;;;;;;;;;;;;;;-0.16;85.58;100450.88;4989498;27;20350;-76
2021/12/03 00:35:48;;;;;;;;;;;;;;;-0.13;84.91;100452.50;5007684;27;20274;-77
2021/12/03 00:38:15;;;;;;;;;;;;;;;-0.20;85.34;100457.16;4982689;28;20183;-76
2021/12/03 00:40:40;;;;;;;;;;;;;;;-0.20;85.38;100460.63;5004568;28;20218;-78
2021/12/03 00:43:06;;;;;;;;;;;;;;;-0.21;85.39;100458.94;4980409;27;20394;-78
2021/12/03 00:45:32;;;;;;;;;;;;;;;-0.23;85.46;100465.94;5010513;27;19977;-78
2021/12/03 00:47:58;;;;;;;;;;;;;;;-0.19;85.45;100456.25;4992066;28;19924;-78
2021/12/03 00:50:23;;;;;;;;;;;;;;;-0.21;85.61;100463.28;5005081;27;19911;-76
2021/12/03 00:52:48;;;;;;;;;;;;;;;-0.24;85.63;100468.63;5021673;27;19916;-76
2021/12/03 00:55:14;;;;;;;;;;;;;;;-0.21;85.54;100479.72;5009128;27;20278;-77
2021/12/03 00:57:39;;;;;;;;;;;;;;;-0.11;85.49;100485.31;5011287;27;19941;-77
2021/12/03 01:00:05;;;;;;;;;;;;;;;-0.12;85.97;100483.63;5009636;27;20021;-77
2021/12/03 01:02:30;;;;;;;;;;;;;;;0.01;86.12;100478.66;4999191;27;20005;-77
2021/12/03 01:04:56;;;;;;;;;;;;;;;0.05;86.44;100485.41;4998734;27;20178;-77
2021/12/03 01:07:21;;;;;;;;;;;;;;;0.12;86.25;100473.78;5004415;27;20358;-77
2021/12/03 01:09:46;;;;;;;;;;;;;;;0.17;86.81;100482.19;5018212;27;20272;-76
2021/12/03 01:12:11;;;;;;;;;;;;;;;0.23;86.86;100480.22;5005159;27;20206;-77
2021/12/03 01:14:39;;;;;;;;;;;;;;;0.32;87.29;100480.59;4994940;27;20420;-77
2021/12/03 01:17:04;;;;;;;;;;;;;;;0.36;87.10;100488.25;4995671;28;20525;-77
2021/12/03 01:19:29;;;;;;;;;;;;;;;0.41;87.33;100489.69;4986405;28;20304;-77
2021/12/03 01:21:55;;;;;;;;;;;;;;;0.45;87.18;100492.97;4988026;27;20345;-77
2021/12/03 01:24:20;;;;;;;;;;;;;;;0.50;86.59;100501.41;5012520;27;20658;-77
2021/12/03 01:26:46;;;;;;;;;;;;;;;0.54;87.14;100500.31;5009271;27;20373;-76
2021/12/03 01:29:11;;;;;;;;;;;;;;;0.56;87.07;100495.03;5012964;27;19996;-77
2021/12/03 01:31:36;;;;;;;;;;;;;;;0.62;87.19;100490.38;5013227;27;19948;-76
2021/12/03 01:34:01;;;;;;;;;;;;;;;0.64;87.23;100509.34;5014821;27;20195;-76
2021/12/03 01:36:27;;;;;;;;;;;;;;;0.64;87.03;100508.50;5005702;27;20906;-76
2021/12/03 01:38:52;;;;;;;;;;;;;;;0.65;87.36;100497.19;5013190;27;20190;-76
2021/12/03 01:41:17;;;;;;;;;;;;;;;0.67;87.24;100503.97;5028737;27;20255;-77
2021/12/03 01:43:44;;;;;;;;;;;;;;;0.74;87.27;100503.66;5027883;27;20443;-76
2021/12/03 01:46:09;;;;;;;;;;;;;;;0.75;87.21;100505.31;5027913;27;19979;-78
2021/12/03 01:48:34;;;;;;;;;;;;;;;0.73;87.08;100504.59;4998784;27;20010;-78
2021/12/03 01:51:00;;;;;;;;;;;;;;;0.75;87.66;100511.41;4988294;28;20204;-76
2021/12/03 01:53:26;;;;;;;;;;;;;;;0.80;87.50;100503.34;4991204;27;20750;-76
2021/12/03 01:55:51;;;;;;;;;;;;;;;0.81;87.51;100494.63;5009036;27;20375;-76
2021/12/03 01:58:17;;;;;;;;;;;;;;;0.81;87.26;100490.22;5010174;27;20195;-76
2021/12/03 02:00:44;;;;;;;;;;;;;;;0.85;87.56;100490.94;5008363;27;19908;-76
2021/12/03 02:03:10;;;;;;;;;;;;;;;0.88;87.71;100500.34;4989022;27;19960;-78
2021/12/03 02:05:35;;;;;;;;;;;;;;;0.91;87.72;100501.00;5005916;28;20367;-77
2021/12/03 02:08:01;;;;;;;;;;;;;;;0.98;87.32;100511.97;5005235;28;20855;-77
2021/12/03 02:10:26;;;;;;;;;;;;;;;0.99;87.45;100506.66;4989075;28;20332;-77
2021/12/03 02:12:51;;;;;;;;;;;;;;;1.02;87.82;100514.31;4972287;28;19915;-76
2021/12/03 02:15:16;;;;;;;;;;;;;;;0.99;87.38;100511.03;4989450;28;19912;-77
2021/12/03 02:17:42;;;;;;;;;;;;;;;1.09;87.17;100514.00;4998205;28;19984;-77
2021/12/03 02:20:08;;;;;;;;;;;;;;;1.11;87.33;100509.53;5002366;28;20452;-76
2021/12/03 02:22:33;;;;;;;;;;;;;;;1.14;86.77;100512.84;4990890;27;19968;-78
2021/12/03 02:24:59;;;;;;;;;;;;;;;1.17;86.85;100509.19;5009866;27;19903;-75
2021/12/03 02:27:24;;;;;;;;;;;;;;;1.18;86.79;100503.06;4991575;27;19931;-75
2021/12/03 02:29:49;;;;;;;;;;;;;;;1.28;87.04;100499.03;5007107;28;19945;-76
2021/12/03 02:32:14;;;;;;;;;;;;;;;1.32;86.88;100504.94;5008900;28;20012;-76
2021/12/03 02:34:40;;;;;;;;;;;;;;;1.34;87.03;100506.53;5008589;28;19959;-76
2021/12/03 02:37:05;;;;;;;;;;;;;;;1.34;86.78;100500.47;5011041;28;20228;-76
2021/12/03 02:39:30;;;;;;;;;;;;;;;1.36;86.95;100507.28;5008700;28;20306;-76
2021/12/03 02:41:55;;;;;;;;;;;;;;;1.32;87.08;100505.78;4990573;28;20691;-76
2021/12/03 02:44:21;;;;;;;;;;;;;;;1.37;86.70;100508.97;5044795;27;20346;-77
2021/12/03 02:46:46;;;;;;;;;;;;;;;1.36;86.84;100506.47;5006198;27;19904;-77
2021/12/03 02:49:14;;;;;;;;;;;;;;;1.34;87.00;100514.38;5013761;27;19919;-77
2021/12/03 02:51:40;;;;;;;;;;;;;;;1.34;86.72;100503.06;5020020;27;19911;-77
2021/12/03 02:54:05;;;;;;;;;;;;;;;1.33;86.59;100504.84;5016576;28;20286;-77
2021/12/03 02:56:30;;;;;;;;;;;;;;;1.35;86.47;100505.63;5009134;27;20491;-76
2021/12/03 02:58:55;;;;;;;;;;;;;;;1.33;86.91;100497.03;5029510;27;19900;-76
2021/12/03 03:01:21;;;;;;;;;;;;;;;1.36;87.02;100496.03;4994938;27;19945;-77
2021/12/03 03:03:46;;;;;;;;;;;;;;;1.45;86.38;100497.28;5011130;27;19959;-76
2021/12/03 03:06:11;;;;;;;;;;;;;;;1.45;86.41;100497.28;5013477;27;20053;-77
2021/12/03 03:08:39;;;;;;;;;;;;;;;1.48;86.01;100507.53;5013053;27;20296;-77
2021/12/03 03:11:06;;;;;;;;;;;;;;;1.43;86.14;100501.75;5011530;27;20626;-77
2021/12/03 03:13:31;;;;;;;;;;;;;;;1.41;86.66;100508.81;4995504;27;19908;-76
2021/12/03 03:15:57;;;;;;;;;;;;;;;1.46;86.23;100509.41;5012179;27;20328;-77
2021/12/03 03:18:23;;;;;;;;;;;;;;;1.45;86.10;100512.94;5011459;27;20192;-76
2021/12/03 03:20:48;;;;;;;;;;;;;;;1.48;85.85;100504.94;4997499;27;20423;-77
2021/12/03 03:23:13;;;;;;;;;;;;;;;1.42;85.96;100503.50;5014862;27;20176;-77
2021/12/03 03:25:42;;;;;;;;;;;;;;;1.53;85.92;100502.91;5013572;27;19952;-77
2021/12/03 03:28:08;;;;;;;;;;;;;;;1.56;85.96;100512.34;5012541;27;20363;-77
2021/12/03 03:30:33;;;;;;;;;;;;;;;1.57;85.83;100508.81;5012162;27;20513;-77
2021/12/03 03:32:58;;;;;;;;;;;;;;;1.70;85.86;100509.81;5017987;27;20296;-76
2021/12/03 03:35:23;;;;;;;;;;;;;;;1.78;85.36;100512.00;5031376;27;19929;-76
2021/12/03 03:37:49;;;;;;;;;;;;;;;1.66;85.38;100513.50;5014523;27;19900;-76
2021/12/03 03:40:14;;;;;;;;;;;;;;;1.62;85.15;100512.84;5013159;27;19932;-76
2021/12/03 03:42:39;;;;;;;;;;;;;;;1.61;85.31;100510.31;4996274;27;19904;-76
2021/12/03 03:45:07;;;;;;;;;;;;;;;1.60;85.55;100514.69;5010285;27;19916;-76
2021/12/03 03:47:32;;;;;;;;;;;;;;;1.67;85.32;100515.22;4995085;27;19969;-77
2021/12/03 03:49:58;;;;;;;;;;;;;;;1.69;85.03;100508.97;5015508;27;20320;-76
2021/12/03 03:52:23;;;;;;;;;;;;;;;1.63;85.26;100504.09;5008083;27;20005;-76
2021/12/03 03:54:48;;;;;;;;;;;;;;;1.68;85.95;100494.25;5002022;28;20391;-76
2021/12/03 03:57:13;;;;;;;;;;;;;;;1.62;86.04;100502.44;5010682;28;20055;-76
2021/12/03 03:59:38;;;;;;;;;;;;;;;1.71;86.09;100496.69;5001601;28;20012;-77
2021/12/03 04:02:04;;;;;;;;;;;;;;;1.69;86.03;100493.34;5007781;28;19976;-77
2021/12/03 04:04:29;;;;;;;;;;;;;;;1.67;85.70;100494.34;5008559;28;20436;-77
2021/12/03 04:06:54;;;;;;;;;;;;;;;1.67;85.80;100496.94;5003708;28;20298;-77
2021/12/03 04:09:20;;;;;;;;;;;;;;;1.59;86.13;100481.72;5009478;28;20052;-77
2021/12/03 04:11:45;;;;;;;;;;;;;;;1.63;85.75;100482.41;5003197;28;20296;-77
2021/12/03 04:14:10;;;;;;;;;;;;;;;1.58;86.03;100471.38;5009186;28;20033;-77
2021/12/03 04:16:36;;;;;;;;;;;;;;;1.57;86.19;100473.16;4991367;28;20300;-77
2021/12/03 04:19:01;;;;;;;;;;;;;;;1.60;86.32;100475.56;4992918;28;20241;-77
2021/12/03 04:21:26;;;;;;;;;;;;;;;1.62;86.03;100467.66;5010078;27;19915;-77
2021/12/03 04:23:52;;;;;;;;;;;;;;;1.60;85.99;100465.16;5012062;27;20417;-76
2021/12/03 04:26:17;;;;;;;;;;;;;;;1.57;86.17;100467.94;5011936;27;19908;-78
2021/12/03 04:28:42;;;;;;;;;;;;;;;1.50;85.80;100471.81;5014602;27;20300;-78
2021/12/03 04:31:07;;;;;;;;;;;;;;;1.60;85.51;100467.75;5013407;27;20249;-78
2021/12/03 04:33:33;;;;;;;;;;;;;;;1.58;85.69;100447.91;5012459;27;20347;-78
2021/12/03 04:35:58;;;;;;;;;;;;;;;1.53;85.35;100449.00;5012763;27;20204;-77
2021/12/03 04:38:23;;;;;;;;;;;;;;;1.56;85.33;100461.03;5003260;28;20385;-77
2021/12/03 04:40:48;;;;;;;;;;;;;;;1.53;85.34;100464.63;4991332;28;20009;-77
2021/12/03 04:43:14;;;;;;;;;;;;;;;1.50;85.39;100469.19;5021142;27;20078;-77
2021/12/03 04:45:39;;;;;;;;;;;;;;;1.57;85.53;100462.72;5000629;28;19979;-77
2021/12/03 04:48:04;;;;;;;;;;;;;;;1.46;85.46;100450.25;5005724;28;20036;-77
2021/12/03 04:50:31;;;;;;;;;;;;;;;1.55;85.55;100456.72;5006649;27;19912;-78
2021/12/03 04:52:56;;;;;;;;;;;;;;;1.52;85.40;100455.16;5006338;28;19916;-78
2021/12/03 04:55:22;;;;;;;;;;;;;;;1.57;85.61;100459.28;4988638;27;20395;-77
2021/12/03 04:57:49;;;;;;;;;;;;;;;1.59;85.01;100449.59;5001786;28;20134;-78
2021/12/03 05:00:20;;;;;;;;;;;;;;;1.56;85.42;100445.38;5007143;27;19908;-76
2021/12/03 05:02:45;;;;;;;;;;;;;;;1.54;85.44;100450.69;5000185;28;19922;-78
2021/12/03 05:05:10;;;;;;;;;;;;;;;1.58;85.69;100448.75;5004577;27;20481;-76
2021/12/03 05:10:07;;;;;;;;;;;;;;;1.58;84.71;100443.53;5004871;27;20286;-76
2021/12/03 05:12:32;;;;;;;;;;;;;;;1.58;84.68;100448.75;5005933;28;20013;-77
2021/12/03 05:14:58;;;;;;;;;;;;;;;1.50;85.02;100456.16;4983577;28;20259;-77
2021/12/03 05:17:23;;;;;;;;;;;;;;;1.53;85.04;100467.25;5003570;28;20371;-77
2021/12/03 05:19:48;;;;;;;;;;;;;;;1.59;84.86;100460.00;5004517;28;20012;-77
2021/12/03 05:22:13;;;;;;;;;;;;;;;1.60;85.24;100466.91;4985750;27;20020;-77
2021/12/03 05:24:40;;;;;;;;;;;;;;;1.61;85.39;100468.59;5013529;27;20037;-77
2021/12/03 05:27:05;;;;;;;;;;;;;;;1.71;85.08;100470.59;5011479;27;19927;-77
2021/12/03 05:29:30;;;;;;;;;;;;;;;1.82;85.14;100470.00;5030100;27;19979;-77
2021/12/03 05:31:56;;;;;;;;;;;;;;;1.86;84.55;100481.09;5030280;27;20012;-76
2021/12/03 05:34:22;;;;;;;;;;;;;;;1.88;84.57;100476.63;5009973;27;20223;-78
2021/12/03 05:36:47;;;;;;;;;;;;;;;1.87;84.77;100472.34;4992023;27;19908;-77
2021/12/03 05:39:12;;;;;;;;;;;;;;;1.87;85.02;100467.13;5010340;27;20348;-78
2021/12/03 05:41:38;;;;;;;;;;;;;;;1.78;84.78;100455.44;4999413;27;20037;-78
2021/12/03 05:44:03;;;;;;;;;;;;;;;1.82;85.24;100472.59;4988974;28;20008;-78
2021/12/03 05:46:28;;;;;;;;;;;;;;;1.88;85.01;100468.81;5003050;27;20028;-78
2021/12/03 05:48:53;;;;;;;;;;;;;;;1.93;85.29;100469.38;4989277;28;20276;-79
2021/12/03 05:51:19;;;;;;;;;;;;;;;1.98;84.89;100472.56;4982790;27;19980;-78
2021/12/03 05:53:44;;;;;;;;;;;;;;;1.92;84.46;100472.94;4981080;28;20306;-78
2021/12/03 05:56:09;;;;;;;;;;;;;;;1.97;84.69;100476.09;4971944;27;19912;-75
2021/12/03 05:58:34;;;;;;;;;;;;;;;1.88;84.68;100477.47;4962670;27;20282;-76
2021/12/03 06:01:00;;;;;;;;;;;;;;;2.01;84.77;100482.81;4959568;27;19920;-76
2021/12/03 06:03:25;;;;;;;;;;;;;;;1.94;84.09;100475.44;4979613;27;19908;-76
2021/12/03 06:05:50;;;;;;;;;;;;;;;1.99;85.23;100476.84;4983653;27;20284;-76
2021/12/03 06:08:15;;;;;;;;;;;;;;;1.97;85.05;100476.09;4983398;27;20496;-78
2021/12/03 06:10:41;;;;;;;;;;;;;;;1.99;85.00;100474.25;4970082;27;20229;-77
2021/12/03 06:13:06;;;;;;;;;;;;;;;1.97;84.47;100480.47;4985061;27;19948;-77
2021/12/03 06:15:31;;;;;;;;;;;;;;;2.08;83.38;100475.47;4983494;27;20476;-77
2021/12/03 06:17:57;;;;;;;;;;;;;;;1.89;83.65;100470.50;4982214;27;20044;-77
2021/12/03 06:20:22;;;;;;;;;;;;;;;1.87;84.08;100472.34;4984807;27;20162;-77
2021/12/03 06:22:47;;;;;;;;;;;;;;;1.86;84.09;100471.50;4978659;27;19934;-78
2021/12/03 06:25:13;;;;;;;;;;;;;;;1.95;84.50;100467.53;4969678;27;20073;-77
2021/12/03 06:27:38;;;;;;;;;;;;;;;1.92;84.27;100462.47;4930097;27;19913;-77
2021/12/03 06:30:07;;;;;;;;;;;;;;;1.88;84.29;100458.38;4947007;27;20349;-77
2021/12/03 06:32:32;;;;;;;;;;;;;;;1.87;84.23;100467.94;4994610;28;20684;-77
2021/12/03 06:34:57;;;;;;;;;;;;;;;1.97;84.44;100467.44;4974074;28;19911;-76
2021/12/03 06:37:22;;;;;;;;;;;;;;;2.00;85.00;100475.06;4979920;28;20140;-78
2021/12/03 06:39:47;;;;;;;;;;;;;;;1.94;85.55;100473.66;4958680;28;19997;-77
2021/12/03 06:42:13;;;;;;;;;;;;;;;2.00;86.36;100477.69;4960074;28;20344;-76
2021/12/03 06:44:38;;;;;;;;;;;;;;;2.00;86.67;100486.38;4949952;28;19912;-76
2021/12/03 06:47:03;;;;;;;;;;;;;;;2.12;87.67;100473.53;4947745;28;20444;-76
2021/12/03 06:49:29;;;;;;;;;;;;;;;2.03;86.92;100485.34;4983055;28;19916;-76
2021/12/03 06:52:00;;;;;;;;;;;;;;;2.02;86.79;100484.50;4958188;28;20301;-76
2021/12/03 06:54:29;;;;;;;;;;;;;;;2.06;87.35;100483.41;4970907;28;19915;-77
2021/12/03 06:56:54;;;;;;;;;;;;;;;2.05;87.43;100479.09;4961387;28;19918;-77
2021/12/03 06:59:20;;;;;;;;;;;;;;;2.06;87.81;100482.56;4969948;28;20296;-76
2021/12/03 07:01:45;;;;;;;;;;;;;;;2.13;88.45;100490.88;4967619;28;19904;-77
2021/12/03 07:04:10;;;;;;;;;;;;;;;2.09;88.00;100489.34;4959806;28;19993;-77
2021/12/03 07:06:36;;;;;;;;;;;;;;;2.10;88.01;100488.44;4977047;28;20724;-78
2021/12/03 07:09:01;;;;;;;;;;;;;;;2.14;87.93;100492.56;4959822;28;19957;-77
2021/12/03 07:11:26;;;;;;;;;;;;;;;2.12;88.18;100478.75;4972299;28;20311;-78
2021/12/03 07:13:51;;;;;;;;;;;;;;;2.04;88.31;100468.75;4979110;28;20312;-76
2021/12/03 07:16:17;;;;;;;;;;;;;;;2.06;88.39;100480.78;4970551;28;20468;-77
2021/12/03 07:18:43;;;;;;;;;;;;;;;2.04;88.61;100477.41;4977598;28;19968;-79
2021/12/03 07:21:09;;;;;;;;;;;;;;;2.08;89.16;100479.88;4961348;28;19982;-76
2021/12/03 07:23:34;;;;;;;;;;;;;;;2.09;88.76;100471.09;4980465;28;19908;-77
2021/12/03 07:26:00;;;;;;;;;;;;;;;2.05;88.61;100478.28;4983033;28;20004;-78
2021/12/03 07:28:26;;;;;;;;;;;;;;;2.10;88.56;100476.25;4985643;27;20266;-83
2021/12/03 07:30:51;;;;;;;;;;;;;;;2.16;88.56;100475.88;4962469;27;19912;-78
2021/12/03 07:33:18;;;;;;;;;;;;;;;2.17;88.29;100472.34;4967766;28;20533;-78
2021/12/03 07:35:45;;;;;;;;;;;;;;;2.12;88.53;100478.75;4964306;28;19938;-78
2021/12/03 07:38:11;;;;;;;;;;;;;;;2.12;88.35;100476.16;4983360;28;19965;-77
2021/12/03 07:40:36;;;;;;;;;;;;;;;2.07;88.66;100479.00;4978629;27;20358;-77
2021/12/03 07:43:01;;;;;;;;;;;;;;;2.16;88.65;100481.09;5005819;27;19973;-80
2021/12/03 07:45:26;;;;;;;;;;;;;;;2.22;88.56;100482.50;4982783;27;20898;-78
2021/12/03 07:47:52;;;;;;;;;;;;;;;2.17;88.62;100482.78;4988715;28;19900;-78
2021/12/03 07:50:19;;;;;;;;;;;;;;;2.18;88.92;100491.44;4968555;28;19915;-78
2021/12/03 07:52:44;;;;;;;;;;;;;;;2.17;88.88;100488.00;4966907;28;20243;-79
2021/12/03 07:55:10;;;;;;;;;;;;;;;2.27;88.84;100485.72;4953342;28;19911;-79
2021/12/03 07:57:35;;;;;;;;;;;;;;;2.30;88.39;100492.50;4945845;28;20404;-78
2021/12/03 08:00:00;;;;;;;;;;;;;;;2.33;88.08;100482.72;4961447;28;20191;-78
2021/12/03 08:02:26;;;;;;;;;;;;;;;2.39;88.22;100474.50;4963465;27;19907;-78
2021/12/03 08:04:52;;;;;;;;;;;;;;;2.52;86.20;100479.84;4962465;28;19915;-79
2021/12/03 08:07:17;;;;;;;;;;;;;;;2.62;85.82;100482.75;4967199;27;19904;-78
2021/12/03 08:09:42;;;;;;;;;;;;;;;2.72;83.14;100486.50;4967688;28;20182;-78
2021/12/03 08:12:08;;;;;;;;;;;;;;;2.72;83.37;100486.50;4956469;28;19908;-80
2021/12/03 08:14:33;;;;;;;;;;;;;;;2.73;83.86;100488.16;4961701;28;20384;-79
2021/12/03 08:16:58;;;;;;;;;;;;;;;2.85;82.66;100493.59;4951639;28;19914;-78
2021/12/03 08:19:23;;;;;;;;;;;;;;;2.78;81.56;100484.44;4978757;27;20211;-78
2021/12/03 08:21:49;;;;;;;;;;;;;;;2.84;82.90;100491.94;4955536;28;19963;-79
2021/12/03 08:24:14;;;;;;;;;;;;;;;2.89;83.18;100495.06;4965575;28;20122;-79
2021/12/03 08:26:39;;;;;;;;;;;;;;;2.74;82.40;100486.41;4955607;28;19908;-78
2021/12/03 08:29:05;;;;;;;;;;;;;;;2.80;82.33;100491.25;4962620;27;20044;-78
2021/12/03 08:31:30;;;;;;;;;;;;;;;2.79;82.18;100499.19;4963543;28;20237;-77
2021/12/03 08:33:55;;;;;;;;;;;;;;;2.91;81.69;100496.66;4977400;27;20453;-77
2021/12/03 08:36:21;;;;;;;;;;;;;;;2.90;80.90;100499.38;4937161;27;20107;-77
2021/12/03 08:38:46;;;;;;;;;;;;;;;2.92;81.63;100498.34;4980728;27;19912;-77
2021/12/03 08:41:16;;;;;;;;;;;;;;;3.06;81.28;100497.50;4989110;27;19938;-78
2021/12/03 08:43:42;;;;;;;;;;;;;;;3.12;82.39;100492.81;4987050;27;20154;-79
2021/12/03 08:46:22;;;;;;;;;;;;;;;3.14;82.42;100498.81;4972807;27;19915;-78
2021/12/03 08:48:48;;;;;;;;;;;;;;;3.16;81.75;100502.16;5021875;27;19919;-79
2021/12/03 08:56:23;;;;;;;;;;;;;;;3.10;80.59;100485.06;4997277;27;19973;-77
2021/12/03 08:58:48;;;;;;;;;;;;;;;3.14;81.47;100477.91;4990213;28;19900;-77
2021/12/03 09:01:14;;;;;;;;;;;;;;;3.11;80.96;100465.03;4973352;28;19916;-80
2021/12/03 09:03:49;;;;;;;;;;;;;;;3.29;80.98;100471.72;4962428;28;20119;-81
2021/12/03 09:06:14;;;;;;;;;;;;;;;3.33;80.31;100473.19;4987629;28;20299;-81
2021/12/03 09:08:39;;;;;;;;;;;;;;;3.21;79.34;100473.97;4977543;28;20157;-81
2021/12/03 09:11:05;;;;;;;;;;;;;;;3.25;80.83;100480.69;4966712;28;20683;-81
2021/12/03 09:13:31;;;;;;;;;;;;;;;3.35;80.72;100489.63;4964750;28;20098;-82
2021/12/03 09:16:08;;;;;;;;;;;;;;;3.35;80.17;100486.19;4947729;28;20242;-84
2021/12/03 09:18:39;;;;;;;;;;;;;;;3.49;80.38;100488.75;4944175;28;19908;-82
2021/12/03 09:26:18;;;;;;;;;;;;;;;3.64;78.06;100480.84;4954372;28;20194;-83
2021/12/03 09:28:44;;;;;;;;;;;;;;;3.75;75.37;100478.38;4943837;28;20661;-82
2021/12/03 09:31:10;;;;;;;;;;;;;;;3.57;73.71;100475.19;4951130;28;19974;-81
2021/12/03 09:33:37;;;;;;;;;;;;;;;3.59;74.07;100474.13;4990625;28;20327;-81
2021/12/03 09:36:03;;;;;;;;;;;;;;;3.69;72.52;100473.56;4973871;28;20440;-81
2021/12/03 09:38:32;;;;;;;;;;;;;;;3.76;72.10;100470.44;4988686;28;19919;-79
2021/12/03 09:41:08;;;;;;;;;;;;;;;3.59;71.42;100466.28;4991035;28;19912;-79
2021/12/03 09:43:34;;;;;;;;;;;;;;;3.57;70.78;100470.78;4983770;28;19973;-79
2021/12/03 09:46:41;;;;;;;;;;;;;;;3.53;70.28;100458.00;4990789;27;20380;-79
2021/12/03 09:48:55;;;;;;;;;;;;;;;3.58;69.57;100455.91;5021958;27;20410;-79
2021/12/03 09:51:21;;;;;;;;;;;;;;;3.60;70.06;100454.06;5008947;27;19956;-79
2021/12/03 09:54:29;;;;;;;;;;;;;;;3.62;70.05;100452.16;4989110;28;20138;-79
2021/12/03 09:56:35;;;;;;;;;;;;;;;3.91;69.78;100447.66;5006598;27;20299;-79
2021/12/03 09:59:37;;;;;;;;;;;;;;;4.10;69.65;100442.06;4992794;27;20302;-80
2021/12/03 10:13:15;;;;;;;;;;;;;;;4.25;68.00;100439.34;5000334;28;19912;-79
2021/12/03 10:15:50;;;;;;;;;;;;;;;4.16;67.58;100450.44;5009867;27;20355;-79
2021/12/03 10:18:30;;;;;;;;;;;;;;;3.92;66.92;100443.25;4991591;27;20159;-81
2021/12/03 10:21:08;;;;;;;;;;;;;;;3.95;67.66;100438.66;5013702;27;19908;-80
2021/12/03 10:39:36;;;;;;;;;;;;;;;3.85;69.22;100418.44;4966618;28;20267;-81
2021/12/03 10:42:35;;;;;;;;;;;;;;;3.96;68.25;100415.94;4990848;28;19908;-78
2021/12/03 10:48:17;;;;;;;;;;;;;;;4.18;66.39;100417.13;4970673;28;20363;-80
2021/12/03 10:51:03;;;;;;;;;;;;;;;4.27;66.42;100395.53;4990010;28;19922;-77
2021/12/03 10:53:45;;;;;;;;;;;;;;;4.10;66.51;100391.44;5006337;28;19908;-79
2021/12/03 10:56:29;;;;;;;;;;;;;;;4.20;66.48;100391.66;5005375;28;19912;-77
2021/12/03 11:31:12;;;;;;;;;;;;;;;4.10;65.47;100332.06;5003284;28;19908;-80
2021/12/03 12:04:10;;;;;;;;;;;;;;;4.37;64.95;100297.06;4999865;27;19951;-76
2021/12/03 12:29:06;;;;;;;;;;;;;;;4.34;65.27;100268.44;4984074;27;19904;-76
2021/12/03 13:01:59;;;;;;;;;;;;;;;4.51;65.06;100211.38;4975292;27;19914;-76
2021/12/03 13:09:51;;;;;;;;;;;;;;;4.41;65.60;100195.50;4964164;27;20392;-77
2021/12/03 13:18:00;;;;;;;;;;;;;;;4.77;64.95;100188.53;4974415;28;20210;-77
2021/12/03 13:37:52;;;;;;;;;;;;;;;4.61;65.82;100154.72;4905775;28;20244;-76
2021/12/03 13:57:34;;;;;;;;;;;;;;;4.56;64.91;100156.88;5012357;27;19955;-77
2021/12/03 13:59:38;;;;;;;;;;;;;;;4.61;64.89;100152.13;4985493;28;19968;-77
2021/12/03 14:02:15;;;;;;;;;;;;;;;4.53;65.04;100138.75;4969399;28;19961;-77
2021/12/03 14:05:09;;;;;;;;;;;;;;;4.38;65.73;100141.53;4960252;27;20779;-77
2021/12/03 14:37:09;;;;;;;;;;;;;;;4.42;65.70;100100.25;4999204;27;19911;-80
2021/12/03 14:39:50;;;;;;;;;;;;;;;4.26;65.84;100103.16;4979029;27;19927;-79
2021/12/03 14:47:52;;;;;;;;;;;;;;;4.04;66.58;100096.84;4980546;27;19923;-76
2021/12/03 14:54:02;;;;;;;;;;;;;;;4.08;66.62;100081.75;4952035;28;19913;-78
2021/12/03 14:56:14;;;;;;;;;;;;;;;4.05;66.87;100072.34;4963092;28;19908;-78
2021/12/03 14:58:51;;;;;;;;;;;;;;;4.02;66.69;100077.81;4952837;27;19916;-79
2021/12/03 15:01:45;;;;;;;;;;;;;;;4.09;66.76;100067.72;4985724;27;19939;-78
2021/12/03 15:09:53;;;;;;;;;;;;;;;4.18;66.67;100072.28;4961956;27;19972;-77
2021/12/03 15:23:13;;;;;;;;;;;;;;;4.26;66.22;100069.13;4980502;27;19907;-78
2021/12/03 15:31:20;;;;;;;;;;;;;;;4.21;66.93;100071.22;4952606;28;20455;-76
2021/12/03 15:34:04;;;;;;;;;;;;;;;4.01;68.38;100076.13;4979075;27;20822;-78
2021/12/03 15:36:48;;;;;;;;;;;;;;;3.97;68.19;100079.09;4972179;28;20208;-78
2021/12/03 15:51:54;;;;;;;;;;;;;;;3.80;69.45;100083.75;4956459;28;20495;-78
2021/12/03 15:53:38;;;;;;;;;;;;;;;3.59;72.74;100065.16;4978953;28;20245;-77
2021/12/03 16:09:19;;;;;;;;;;;;;;;3.28;76.99;100038.56;4919973;28;20359;-77
2021/12/03 16:12:00;;;;;;;;;;;;;;;3.22;77.52;100034.59;4935281;28;19912;-76
2021/12/03 16:25:00;;;;;;;;;;;;;;;3.06;78.55;100008.69;4991917;28;20222;-76
2021/12/03 16:51:41;;;;;;;;;;;;;;;3.19;78.48;100000.81;4980011;28;19935;-77
2021/12/03 16:54:09;;;;;;;;;;;;;;;3.18;78.43;99991.31;4987219;28;19919;-78
2021/12/03 16:56:35;;;;;;;;;;;;;;;3.29;78.22;99995.78;4987432;28;19911;-78
2021/12/03 16:59:00;;;;;;;;;;;;;;;3.32;78.63;99985.09;4983139;28;20315;-78
2021/12/03 17:04:07;;;;;;;;;;;;;;;3.24;78.52;99984.81;5003142;28;20010;-77
2021/12/03 17:12:02;;;;;;;;;;;;;;;3.24;77.94;99969.97;4992505;28;20387;-78
2021/12/03 17:56:49;;;;;;;;;;;;;;;3.48;78.40;99952.63;4958848;28;19927;-78
2021/12/03 18:01:56;;;;;;;;;;;;;;;3.30;78.86;99954.78;4985948;28;19955;-79
2021/12/03 18:04:40;;;;;;;;;;;;;;;3.39;79.68;99943.66;4987305;28;19913;-78
2021/12/03 18:07:12;;;;;;;;;;;;;;;3.32;79.48;99943.25;4986124;28;19904;-79
2021/12/03 18:18:38;;;;;;;;;;;;;;;3.39;80.50;99912.28;4990936;28;20123;-79
2021/12/03 18:44:12;;;;;;;;;;;;;;;3.20;84.12;99860.47;4946382;27;20970;-77
2021/12/03 18:56:19;;;;;;;;;;;;;;;3.12;84.57;99842.75;4978832;28;19957;-78
2021/12/03 18:58:46;;;;;;;;;;;;;;;3.09;84.69;99835.97;4988870;28;19980;-78
2021/12/03 19:01:12;;;;;;;;;;;;;;;3.02;85.29;99837.34;4956088;28;20607;-78
2021/12/03 19:06:23;;;;;;;;;;;;;;;3.08;84.92;99834.28;4973890;28;20576;-78
2021/12/03 19:11:27;;;;;;;;;;;;;;;3.06;84.84;99823.13;4982797;28;20164;-78
2021/12/03 19:13:52;;;;;;;;;;;;;;;3.02;85.17;99821.66;4992306;28;20190;-78
2021/12/03 19:16:21;;;;;;;;;;;;;;;3.00;85.24;99815.69;5003553;27;20435;-78
2021/12/03 19:18:48;;;;;;;;;;;;;;;3.01;85.25;99820.00;4975349;28;20199;-78
2021/12/03 19:21:19;;;;;;;;;;;;;;;2.97;85.31;99821.16;4978687;27;20527;-77
2021/12/03 19:23:44;;;;;;;;;;;;;;;2.95;85.40;99809.13;5000412;27;20390;-77
2021/12/03 19:26:09;;;;;;;;;;;;;;;3.02;85.26;99811.22;5013256;27;19926;-77
2021/12/03 19:28:36;;;;;;;;;;;;;;;2.98;85.48;99812.38;4991412;28;20186;-78
2021/12/03 19:31:02;;;;;;;;;;;;;;;3.03;85.32;99799.81;4971416;27;19912;-78
2021/12/03 19:33:27;;;;;;;;;;;;;;;3.03;85.19;99791.97;5003547;27;20135;-77
2021/12/03 19:35:52;;;;;;;;;;;;;;;3.17;84.87;99795.34;4986546;28;20380;-77
2021/12/03 19:38:18;;;;;;;;;;;;;;;3.08;84.94;99795.06;4977480;27;20066;-78
2021/12/03 19:40:53;;;;;;;;;;;;;;;3.01;85.72;99788.63;4995513;27;19956;-78
2021/12/03 19:43:25;;;;;;;;;;;;;;;3.02;85.46;99786.88;4983043;27;20000;-78
2021/12/03 19:45:57;;;;;;;;;;;;;;;3.00;85.66;99796.56;4983532;27;19908;-79
2021/12/03 19:48:26;;;;;;;;;;;;;;;2.98;85.88;99793.25;4977715;27;20587;-78
2021/12/03 19:50:56;;;;;;;;;;;;;;;2.96;86.05;99789.91;4968867;27;19911;-78
2021/12/03 19:53:28;;;;;;;;;;;;;;;2.96;86.29;99788.16;4973201;27;19947;-78